Time;durP1;ratioP1;P1;durP2;ratioP2;P2;SDS_P1;SDS_P2;PMS_P1;PMS_P2;Temp;Humidity;BMP_temperature;BMP_pressure;BME280_temperature;BME280_humidity;BME280_pressure;Samples;Min_cycle;Max_cycle;Signal;HPM_P1;HPM_P2
2022/01/13 00:00:27;;;;;;;;;;;;;;;6.45;69.47;103539.78;7364074;19;19925;-60
2022/01/13 00:02:52;;;;;;;;;;;;;;;6.44;69.61;103543.22;7362857;19;19919;-60
2022/01/13 00:05:25;;;;;;;;;;;;;;;6.42;69.43;103531.88;7359974;19;19919;-59
2022/01/13 00:07:51;;;;;;;;;;;;;;;6.41;69.93;103530.09;7362743;19;19986;-59
2022/01/13 00:10:16;;;;;;;;;;;;;;;6.40;69.65;103538.72;7366532;19;19922;-58
2022/01/13 00:12:43;;;;;;;;;;;;;;;6.38;69.63;103542.94;7367285;19;19940;-58
2022/01/13 00:23:38;;;;;;;;;;;;;;;6.33;69.55;103534.09;7365516;19;20356;-59
2022/01/13 00:25:35;;;;;;;;;;;;;;;6.32;70.01;103541.84;7265587;19;2004514;-59
2022/01/13 00:28:05;;;;;;;;;;;;;;;6.30;69.75;103539.19;7369106;19;19914;-58
2022/01/13 00:30:31;;;;;;;;;;;;;;;6.28;69.52;103546.00;7371775;19;20252;-60
2022/01/13 00:32:57;;;;;;;;;;;;;;;6.26;69.95;103552.84;7371534;19;19929;-59
2022/01/13 00:35:22;;;;;;;;;;;;;;;6.23;69.75;103543.25;7369709;19;19925;-59
2022/01/13 00:37:47;;;;;;;;;;;;;;;6.22;69.82;103550.94;7368916;19;19939;-60
2022/01/13 00:40:13;;;;;;;;;;;;;;;6.19;69.76;103556.03;7369059;19;19923;-59
2022/01/13 00:42:39;;;;;;;;;;;;;;;6.18;70.00;103552.56;7370468;19;19922;-59
2022/01/13 00:45:05;;;;;;;;;;;;;;;6.16;70.16;103556.78;7370241;19;19931;-59
2022/01/13 00:47:30;;;;;;;;;;;;;;;6.14;69.86;103547.16;7368615;19;20282;-59
2022/01/13 00:49:57;;;;;;;;;;;;;;;6.12;70.18;103543.59;7371703;19;19933;-60
2022/01/13 00:52:24;;;;;;;;;;;;;;;6.10;69.93;103555.66;7369935;19;19934;-59
2022/01/13 00:54:49;;;;;;;;;;;;;;;6.08;69.93;103557.28;7367326;19;19922;-60
2022/01/13 00:57:14;;;;;;;;;;;;;;;6.06;69.93;103559.81;7369867;19;19948;-59
2022/01/13 00:59:39;;;;;;;;;;;;;;;6.04;70.15;103550.22;7366877;19;19922;-60
2022/01/13 01:02:05;;;;;;;;;;;;;;;6.01;70.11;103550.06;7372470;19;19967;-59
2022/01/13 01:04:30;;;;;;;;;;;;;;;5.98;69.82;103551.72;7370651;19;19997;-59
2022/01/13 01:06:55;;;;;;;;;;;;;;;5.97;69.81;103549.94;7364316;19;19929;-59
2022/01/13 01:09:39;;;;;;;;;;;;;;;5.94;70.11;103549.81;7368480;19;19914;-60
2022/01/13 01:12:05;;;;;;;;;;;;;;;5.91;70.38;103544.50;7369353;19;20540;-58
2022/01/13 01:14:33;;;;;;;;;;;;;;;5.87;69.92;103542.53;7369493;19;19935;-59
2022/01/13 01:16:58;;;;;;;;;;;;;;;5.86;69.99;103545.97;7364891;19;19915;-58
2022/01/13 01:19:28;;;;;;;;;;;;;;;5.85;70.12;103543.31;7367751;19;20330;-57
2022/01/13 01:22:17;;;;;;;;;;;;;;;5.82;70.33;103544.06;7368373;19;19926;-58
2022/01/13 01:27:27;;;;;;;;;;;;;;;5.79;70.29;103554.31;7348475;19;20745;-59
2022/01/13 01:30:02;;;;;;;;;;;;;;;5.75;70.07;103547.22;7349599;19;20303;-60
2022/01/13 01:32:28;;;;;;;;;;;;;;;5.74;70.38;103548.06;7357396;19;20302;-59
2022/01/13 01:34:55;;;;;;;;;;;;;;;5.73;70.03;103546.28;7368409;19;19978;-59
2022/01/13 01:37:23;;;;;;;;;;;;;;;5.70;70.29;103554.81;7367813;19;19923;-59
2022/01/13 01:39:49;;;;;;;;;;;;;;;5.69;70.50;103541.78;7369154;19;19978;-58
2022/01/13 01:42:15;;;;;;;;;;;;;;;5.69;70.52;103546.97;7366089;19;19950;-60
2022/01/13 01:44:43;;;;;;;;;;;;;;;5.67;70.56;103548.59;7366652;19;19927;-60
2022/01/13 01:47:10;;;;;;;;;;;;;;;5.66;70.27;103546.81;7371216;19;20321;-60
2022/01/13 01:49:41;;;;;;;;;;;;;;;5.65;70.45;103551.13;7359805;19;20478;-58
2022/01/13 01:52:07;;;;;;;;;;;;;;;5.64;70.18;103548.47;7368012;19;19944;-60
2022/01/13 01:54:32;;;;;;;;;;;;;;;5.63;70.51;103542.41;7366942;19;19914;-61
2022/01/13 01:56:58;;;;;;;;;;;;;;;5.62;70.56;103539.72;7367432;19;19970;-59
2022/01/13 01:59:27;;;;;;;;;;;;;;;5.62;70.52;103540.63;7370018;19;20312;-59
2022/01/13 02:01:52;;;;;;;;;;;;;;;5.61;70.43;103528.47;7368243;19;19939;-59
2022/01/13 02:04:19;;;;;;;;;;;;;;;5.61;70.80;103532.78;7369066;19;19923;-60
2022/01/13 02:06:45;;;;;;;;;;;;;;;5.60;70.40;103531.00;7365474;19;19922;-59
2022/01/13 02:09:11;;;;;;;;;;;;;;;5.60;70.77;103534.50;7365808;19;19919;-59
2022/01/13 02:11:45;;;;;;;;;;;;;;;5.60;70.45;103523.25;7365246;19;19923;-60
2022/01/13 02:16:52;;;;;;;;;;;;;;;5.58;70.62;103523.19;7365569;19;19914;-59
2022/01/13 02:19:18;;;;;;;;;;;;;;;5.58;70.94;103530.06;7368906;19;19918;-59
2022/01/13 02:21:43;;;;;;;;;;;;;;;5.58;70.58;103519.72;7363207;19;19943;-60
2022/01/13 02:24:09;;;;;;;;;;;;;;;5.56;70.66;103522.22;7368227;19;19940;-59
2022/01/13 02:26:34;;;;;;;;;;;;;;;5.58;70.93;103527.47;7366152;19;19927;-59
2022/01/13 02:28:59;;;;;;;;;;;;;;;5.56;70.52;103526.50;7362625;19;19975;-60
2022/01/13 02:31:26;;;;;;;;;;;;;;;5.56;70.69;103526.50;7365980;19;19931;-59
2022/01/13 02:33:51;;;;;;;;;;;;;;;5.56;70.79;103526.50;7363401;19;19923;-59
2022/01/13 02:36:18;;;;;;;;;;;;;;;5.54;70.62;103525.56;7365687;19;19958;-59
2022/01/13 02:38:50;;;;;;;;;;;;;;;5.53;70.73;103524.69;7367375;19;19915;-59
2022/01/13 02:41:16;;;;;;;;;;;;;;;5.52;71.11;103522.88;7366770;19;19926;-59
2022/01/13 02:43:43;;;;;;;;;;;;;;;5.51;71.02;103510.75;7366181;19;19911;-60
2022/01/13 02:49:10;;;;;;;;;;;;;;;5.50;71.00;103518.47;7258061;19;2004352;-59
2022/01/13 02:51:36;;;;;;;;;;;;;;;5.49;71.07;103521.91;7368568;19;19926;-59
2022/01/13 02:54:02;;;;;;;;;;;;;;;5.47;70.80;103520.13;7362724;19;20295;-58
2022/01/13 02:56:28;;;;;;;;;;;;;;;5.47;70.72;103519.22;7364012;19;19941;-58
2022/01/13 02:58:53;;;;;;;;;;;;;;;5.45;70.56;103513.97;7360198;19;19922;-58
2022/01/13 03:01:19;;;;;;;;;;;;;;;5.45;71.04;103515.69;7362390;19;20036;-58
2022/01/13 03:03:45;;;;;;;;;;;;;;;5.44;70.73;103522.56;7363161;19;19918;-59
2022/01/13 03:06:11;;;;;;;;;;;;;;;5.42;70.91;103513.84;7365621;19;19926;-58
2022/01/13 03:08:38;;;;;;;;;;;;;;;5.41;70.94;103508.59;7362210;19;20339;-59
2022/01/13 03:11:04;;;;;;;;;;;;;;;5.39;71.16;103511.13;7366315;19;20360;-60
2022/01/13 03:13:30;;;;;;;;;;;;;;;5.38;71.06;103514.53;7359785;19;19930;-59
2022/01/13 03:15:55;;;;;;;;;;;;;;;5.36;71.03;103510.97;7363810;19;19927;-59
2022/01/13 03:18:20;;;;;;;;;;;;;;;5.36;71.14;103504.91;7361625;19;19925;-58
2022/01/13 03:20:46;;;;;;;;;;;;;;;5.34;70.75;103506.56;7364830;19;20060;-58
2022/01/13 03:23:16;;;;;;;;;;;;;;;5.32;71.31;103508.19;7363596;19;19950;-58
2022/01/13 03:25:44;;;;;;;;;;;;;;;5.29;70.71;103503.75;7359515;19;19930;-57
2022/01/13 03:28:15;;;;;;;;;;;;;;;5.27;71.17;103510.59;7358382;19;19910;-59
2022/01/13 03:30:40;;;;;;;;;;;;;;;5.25;71.15;103503.56;7363692;19;19987;-59
2022/01/13 03:33:06;;;;;;;;;;;;;;;5.21;70.81;103499.94;7364689;19;19915;-59
2022/01/13 03:35:31;;;;;;;;;;;;;;;5.18;70.92;103500.69;7359065;19;20975;-59
2022/01/13 03:37:58;;;;;;;;;;;;;;;5.16;71.05;103506.63;7363753;19;19919;-59
2022/01/13 03:40:23;;;;;;;;;;;;;;;5.13;71.20;103498.72;7365763;19;19942;-59
2022/01/13 03:42:52;;;;;;;;;;;;;;;5.12;71.13;103496.94;7357713;19;20936;-59
2022/01/13 03:45:18;;;;;;;;;;;;;;;5.08;71.34;103493.34;7356584;19;20786;-59
2022/01/13 03:47:43;;;;;;;;;;;;;;;5.07;71.19;103495.84;7363569;19;19948;-59
2022/01/13 03:50:08;;;;;;;;;;;;;;;5.03;71.09;103497.44;7361275;19;19946;-59
2022/01/13 03:52:33;;;;;;;;;;;;;;;5.01;71.13;103493.88;7356855;19;19954;-59
2022/01/13 03:55:02;;;;;;;;;;;;;;;4.98;70.81;103491.16;7358633;19;19926;-59
2022/01/13 03:57:46;;;;;;;;;;;;;;;4.95;70.91;103485.81;7360261;19;19915;-60
2022/01/13 04:00:11;;;;;;;;;;;;;;;4.92;71.32;103490.88;7364659;19;19927;-59
2022/01/13 04:02:36;;;;;;;;;;;;;;;4.89;71.15;103486.44;7358776;19;19918;-58
2022/01/13 04:05:02;;;;;;;;;;;;;;;4.87;71.15;103488.09;7363158;19;19919;-60
2022/01/13 04:07:27;;;;;;;;;;;;;;;4.85;71.46;103484.53;7357653;19;19987;-59
2022/01/13 04:09:55;;;;;;;;;;;;;;;4.84;71.49;103481.88;7362152;19;19933;-60
2022/01/13 04:12:23;;;;;;;;;;;;;;;4.83;71.24;103475.81;7363440;19;19974;-59
2022/01/13 04:14:52;;;;;;;;;;;;;;;4.81;71.29;103479.13;7357274;19;20334;-59
2022/01/13 04:17:19;;;;;;;;;;;;;;;4.79;71.62;103471.31;7362597;19;19919;-59
2022/01/13 04:19:45;;;;;;;;;;;;;;;4.79;71.62;103470.41;7361466;19;19914;-58
2022/01/13 04:22:11;;;;;;;;;;;;;;;4.78;71.21;103476.44;7355009;19;19914;-58
2022/01/13 04:24:37;;;;;;;;;;;;;;;4.76;71.36;103478.03;7362264;19;20289;-59
2022/01/13 04:27:03;;;;;;;;;;;;;;;4.76;71.43;103478.03;7359326;19;20640;-59
2022/01/13 04:29:34;;;;;;;;;;;;;;;4.73;71.47;103473.63;7364180;19;19929;-60
2022/01/13 04:31:59;;;;;;;;;;;;;;;4.72;71.61;103471.84;7359295;19;19923;-61
2022/01/13 04:34:26;;;;;;;;;;;;;;;4.71;71.34;103467.47;7364415;19;19923;-59
2022/01/13 04:36:51;;;;;;;;;;;;;;;4.70;71.34;103468.28;7358404;19;20331;-60
2022/01/13 04:39:17;;;;;;;;;;;;;;;4.69;71.77;103466.53;7363251;19;19926;-59
2022/01/13 04:41:45;;;;;;;;;;;;;;;4.68;71.64;103469.94;7363364;19;19939;-60
2022/01/13 04:44:14;;;;;;;;;;;;;;;4.69;71.38;103471.69;7364297;19;19938;-58
2022/01/13 04:46:39;;;;;;;;;;;;;;;4.68;71.62;103469.94;7364348;19;19923;-60
2022/01/13 04:49:06;;;;;;;;;;;;;;;4.66;71.49;103467.28;7364966;19;21603;-59
2022/01/13 04:51:31;;;;;;;;;;;;;;;4.65;71.40;103470.66;7362993;19;20360;-59
2022/01/13 04:53:56;;;;;;;;;;;;;;;4.66;71.77;103468.97;7364345;19;19918;-58
2022/01/13 04:56:39;;;;;;;;;;;;;;;4.65;71.62;103469.78;7370765;19;19914;-59
2022/01/13 04:59:05;;;;;;;;;;;;;;;4.65;71.65;103469.78;7368073;19;19919;-61
2022/01/13 05:01:30;;;;;;;;;;;;;;;4.66;71.57;103481.91;7373720;19;19919;-60
2022/01/13 05:03:56;;;;;;;;;;;;;;;4.65;71.89;103472.38;7369173;19;19929;-59
2022/01/13 05:06:22;;;;;;;;;;;;;;;4.65;71.81;103464.59;7367823;19;19931;-59
2022/01/13 05:08:47;;;;;;;;;;;;;;;4.64;71.78;103462.84;7371626;19;19922;-61
2022/01/13 05:11:12;;;;;;;;;;;;;;;4.63;71.59;103461.06;7368438;19;19918;-59
2022/01/13 05:13:37;;;;;;;;;;;;;;;4.63;71.54;103461.06;7370866;19;19918;-60
2022/01/13 05:16:03;;;;;;;;;;;;;;;4.62;71.59;103457.59;7367556;19;20265;-59
2022/01/13 05:21:20;;;;;;;;;;;;;;;4.61;71.91;103457.50;7370866;19;19926;-59
2022/01/13 05:23:45;;;;;;;;;;;;;;;4.59;71.62;103453.97;7368773;19;19995;-59
2022/01/13 05:26:10;;;;;;;;;;;;;;;4.57;71.71;103450.44;7371336;19;19921;-59
2022/01/13 05:28:36;;;;;;;;;;;;;;;4.54;71.91;103446.00;7369057;19;19911;-58
2022/01/13 05:31:01;;;;;;;;;;;;;;;4.53;71.50;103448.53;7371414;19;19922;-59
2022/01/13 05:33:27;;;;;;;;;;;;;;;4.50;71.60;103449.25;7345825;19;19922;-59
2022/01/13 05:35:52;;;;;;;;;;;;;;;4.48;71.54;103439.66;7368306;19;19948;-59
2022/01/13 05:38:18;;;;;;;;;;;;;;;4.43;71.69;103437.75;7372468;19;19955;-59
2022/01/13 05:40:44;;;;;;;;;;;;;;;4.41;71.83;103435.91;7370807;19;20651;-59
2022/01/13 05:43:09;;;;;;;;;;;;;;;4.38;71.81;103434.06;7368820;19;19917;-58
2022/01/13 05:45:34;;;;;;;;;;;;;;;4.35;71.59;103433.91;7366699;19;19922;-59
2022/01/13 05:48:01;;;;;;;;;;;;;;;4.34;71.82;103437.31;7371913;19;20651;-60
2022/01/13 05:50:27;;;;;;;;;;;;;;;4.33;72.10;103445.00;7371429;19;19922;-59
2022/01/13 05:52:52;;;;;;;;;;;;;;;4.32;71.71;103438.94;7369174;19;19944;-60
2022/01/13 05:55:18;;;;;;;;;;;;;;;4.32;71.92;103446.72;7370797;19;19918;-60
2022/01/13 05:57:44;;;;;;;;;;;;;;;4.31;72.08;103442.38;7369210;19;19922;-59
2022/01/13 06:00:13;;;;;;;;;;;;;;;4.31;71.87;103442.38;7367836;19;19926;-60
2022/01/13 06:02:39;;;;;;;;;;;;;;;4.32;72.30;103445.81;7369292;19;19943;-59
2022/01/13 06:05:05;;;;;;;;;;;;;;;4.33;71.92;103438.13;7366789;19;20703;-59
2022/01/13 06:07:30;;;;;;;;;;;;;;;4.32;72.32;103444.13;7367404;19;19936;-58
2022/01/13 06:09:56;;;;;;;;;;;;;;;4.32;72.11;103444.13;7368712;19;19951;-59
2022/01/13 06:12:31;;;;;;;;;;;;;;;4.33;72.10;103435.53;7365654;19;19927;-60
2022/01/13 06:14:57;;;;;;;;;;;;;;;4.31;72.11;103437.19;7369412;19;19925;-60
2022/01/13 06:17:22;;;;;;;;;;;;;;;4.30;72.34;103437.97;7365919;19;19936;-59
2022/01/13 06:19:47;;;;;;;;;;;;;;;4.31;72.11;103439.78;7367745;19;19929;-58
2022/01/13 06:22:12;;;;;;;;;;;;;;;4.30;72.09;103440.56;7367942;19;19922;-58
2022/01/13 06:24:38;;;;;;;;;;;;;;;4.29;72.55;103438.78;7366556;19;19944;-58
2022/01/13 06:27:03;;;;;;;;;;;;;;;4.28;72.35;103437.03;7369517;19;19922;-61
2022/01/13 06:29:28;;;;;;;;;;;;;;;4.27;72.64;103439.56;7368372;19;19930;-60
2022/01/13 06:31:56;;;;;;;;;;;;;;;4.26;72.39;103438.69;7366428;19;19911;-60
2022/01/13 06:34:21;;;;;;;;;;;;;;;4.25;72.33;103441.16;7362620;19;20361;-60
2022/01/13 06:36:46;;;;;;;;;;;;;;;4.25;72.11;103436.88;7362767;19;19918;-59
2022/01/13 06:39:12;;;;;;;;;;;;;;;4.23;72.50;103437.63;7367458;19;19931;-60
2022/01/13 06:41:39;;;;;;;;;;;;;;;4.21;72.38;103434.97;7366506;19;19923;-60
2022/01/13 06:44:05;;;;;;;;;;;;;;;4.20;72.48;103433.19;7366549;19;19939;-59
2022/01/13 06:46:30;;;;;;;;;;;;;;;4.19;72.43;103439.19;7366190;19;19938;-60
2022/01/13 06:48:55;;;;;;;;;;;;;;;4.18;72.34;103434.81;7368630;19;19941;-59
2022/01/13 06:51:21;;;;;;;;;;;;;;;4.18;72.32;103440.00;7367996;19;19925;-59
2022/01/13 06:53:46;;;;;;;;;;;;;;;4.16;72.63;103437.34;7368087;19;19940;-59
2022/01/13 06:56:12;;;;;;;;;;;;;;;4.08;72.44;103422.28;7365292;19;19927;-60
2022/01/13 06:58:37;;;;;;;;;;;;;;;4.20;72.60;103437.47;7367698;19;19931;-59
2022/01/13 07:01:02;;;;;;;;;;;;;;;4.20;72.90;103438.34;7359492;19;19922;-58
2022/01/13 07:03:27;;;;;;;;;;;;;;;4.22;72.84;103431.56;7361394;19;19922;-59
2022/01/13 07:05:53;;;;;;;;;;;;;;;4.23;72.64;103433.34;7366616;19;20659;-58
2022/01/13 07:08:18;;;;;;;;;;;;;;;4.25;72.50;103444.63;7367404;19;20335;-60
2022/01/13 07:10:45;;;;;;;;;;;;;;;4.27;72.53;103445.63;7363584;19;19958;-60
2022/01/13 07:13:11;;;;;;;;;;;;;;;4.28;72.64;103449.09;7364941;19;20724;-60
2022/01/13 07:15:36;;;;;;;;;;;;;;;4.29;72.94;103454.31;7365665;19;19923;-60
2022/01/13 07:18:01;;;;;;;;;;;;;;;4.31;72.62;103449.19;7362392;19;19914;-59
2022/01/13 07:20:28;;;;;;;;;;;;;;;4.31;72.52;103454.38;7362512;19;19926;-59
2022/01/13 07:22:53;;;;;;;;;;;;;;;4.32;72.52;103454.47;7366156;19;20265;-59
2022/01/13 07:25:18;;;;;;;;;;;;;;;4.35;72.76;103454.59;7361330;19;19926;-60
2022/01/13 07:27:44;;;;;;;;;;;;;;;4.37;72.89;103454.69;7361243;19;19919;-60
2022/01/13 07:30:10;;;;;;;;;;;;;;;4.39;72.59;103469.47;7358616;19;19918;-59
2022/01/13 07:32:35;;;;;;;;;;;;;;;4.42;72.98;103460.97;7363975;19;19923;-59
2022/01/13 07:35:01;;;;;;;;;;;;;;;4.47;73.18;103463.78;7361578;19;20247;-59
2022/01/13 07:37:27;;;;;;;;;;;;;;;4.49;72.93;103463.00;7364345;19;19911;-58
2022/01/13 07:40:20;;;;;;;;;;;;;;;4.56;72.97;103459.00;7358136;19;19914;-59
2022/01/13 07:42:46;;;;;;;;;;;;;;;4.60;73.16;103461.81;7361746;19;19959;-63
2022/01/13 07:45:12;;;;;;;;;;;;;;;4.66;72.94;103468.97;7352175;19;20277;-62
2022/01/13 07:47:38;;;;;;;;;;;;;;;4.71;73.11;103464.00;7363266;19;20554;-63
2022/01/13 07:50:05;;;;;;;;;;;;;;;4.76;73.28;103468.56;7364669;19;19998;-63
2022/01/13 07:52:30;;;;;;;;;;;;;;;4.81;73.39;103467.06;7364054;19;19930;-62
2022/01/13 07:54:55;;;;;;;;;;;;;;;4.86;73.47;103473.34;7363359;19;19914;-63
2022/01/13 07:57:21;;;;;;;;;;;;;;;4.90;73.16;103472.66;7357897;19;19922;-62
2022/01/13 07:59:46;;;;;;;;;;;;;;;4.95;73.11;103481.53;7355899;19;19918;-62
2022/01/13 08:02:11;;;;;;;;;;;;;;;5.01;73.17;103474.84;7357768;19;19940;-62
2022/01/13 08:04:37;;;;;;;;;;;;;;;5.05;73.19;103481.94;7360383;19;19914;-63
2022/01/13 08:07:02;;;;;;;;;;;;;;;5.11;72.98;103487.41;7355263;19;19940;-62
2022/01/13 08:09:27;;;;;;;;;;;;;;;5.14;73.17;103488.44;7361954;19;19970;-62
2022/01/13 08:11:53;;;;;;;;;;;;;;;5.18;72.97;103484.28;7359945;19;19919;-62
2022/01/13 08:14:19;;;;;;;;;;;;;;;5.23;73.12;103492.25;7355594;19;19960;-63
2022/01/13 08:16:45;;;;;;;;;;;;;;;5.27;73.37;103496.72;7366284;19;19979;-62
2022/01/13 08:21:54;;;;;;;;;;;;;;;5.33;72.99;103495.31;7360977;19;19929;-63
2022/01/13 08:24:20;;;;;;;;;;;;;;;5.36;73.37;103485.06;7360858;19;19914;-62
2022/01/13 08:26:45;;;;;;;;;;;;;;;5.38;73.25;103495.50;7350699;19;19918;-63
2022/01/13 08:29:10;;;;;;;;;;;;;;;5.40;73.03;103489.56;7362490;19;19918;-62
2022/01/13 08:31:36;;;;;;;;;;;;;;;5.43;73.04;103487.13;7369835;19;19919;-61
2022/01/13 08:34:02;;;;;;;;;;;;;;;5.46;72.88;103491.53;7357587;19;19930;-62
2022/01/13 08:36:27;;;;;;;;;;;;;;;5.46;73.23;103489.81;7366944;19;19930;-62
2022/01/13 08:38:52;;;;;;;;;;;;;;;5.50;73.25;103497.75;7373003;19;19921;-62
2022/01/13 08:41:18;;;;;;;;;;;;;;;5.51;72.80;103490.03;7359246;19;19959;-61
2022/01/13 08:43:43;;;;;;;;;;;;;;;5.53;73.29;103492.69;7357248;19;19923;-61
2022/01/13 08:46:08;;;;;;;;;;;;;;;5.52;72.96;103486.59;7372510;19;21821;-62
2022/01/13 08:48:34;;;;;;;;;;;;;;;5.56;73.20;103485.03;7360697;19;19921;-63
2022/01/13 08:51:00;;;;;;;;;;;;;;;5.58;73.08;103486.00;7362690;19;19941;-62
2022/01/13 08:53:25;;;;;;;;;;;;;;;5.60;72.78;103489.53;7357807;19;20516;-62
2022/01/13 08:55:51;;;;;;;;;;;;;;;5.61;73.12;103480.94;7359510;19;19919;-62
2022/01/13 08:58:18;;;;;;;;;;;;;;;5.61;73.19;103486.13;7358757;19;19947;-63
2022/01/13 09:00:44;;;;;;;;;;;;;;;5.61;72.89;103481.81;7365555;19;19919;-65
2022/01/13 09:03:11;;;;;;;;;;;;;;;5.62;72.83;103493.06;7360438;19;19952;-65
2022/01/13 09:05:37;;;;;;;;;;;;;;;5.61;72.91;103491.31;7367169;19;19923;-64
2022/01/13 09:08:04;;;;;;;;;;;;;;;5.61;72.82;103491.31;7366086;19;19936;-63
2022/01/13 09:10:29;;;;;;;;;;;;;;;5.62;73.08;103493.06;7353456;19;19974;-64
2022/01/13 09:12:55;;;;;;;;;;;;;;;5.61;72.52;103501.66;7365017;19;19935;-65
2022/01/13 09:15:32;;;;;;;;;;;;;;;5.61;72.57;103502.56;7370015;19;19929;-65
2022/01/13 09:17:59;;;;;;;;;;;;;;;5.61;73.13;103512.03;7364031;19;19914;-64
2022/01/13 09:20:24;;;;;;;;;;;;;;;5.61;72.99;103506.84;7364585;19;19933;-64
2022/01/13 09:22:50;;;;;;;;;;;;;;;5.61;73.02;103505.16;7368540;19;19922;-65
2022/01/13 09:25:15;;;;;;;;;;;;;;;5.63;73.18;103505.25;7365031;19;20693;-65
2022/01/13 09:27:41;;;;;;;;;;;;;;;5.65;72.99;103514.84;7367445;19;19918;-65
2022/01/13 09:30:10;;;;;;;;;;;;;;;5.68;73.30;103519.28;7370504;19;19951;-65
2022/01/13 09:32:36;;;;;;;;;;;;;;;5.71;72.88;103509.03;7367132;19;19931;-64
2022/01/13 09:35:02;;;;;;;;;;;;;;;5.75;73.27;103510.94;7368310;19;19918;-66
2022/01/13 09:37:28;;;;;;;;;;;;;;;5.78;72.99;103505.88;7369756;19;19926;-65
2022/01/13 09:39:56;;;;;;;;;;;;;;;5.82;73.10;103497.38;7361449;19;19911;-65
2022/01/13 09:42:21;;;;;;;;;;;;;;;5.87;73.16;103505.34;7366648;19;19919;-66
2022/01/13 09:44:47;;;;;;;;;;;;;;;5.91;73.24;103503.00;7363367;19;19922;-65
2022/01/13 09:47:13;;;;;;;;;;;;;;;5.96;73.24;103501.47;7364200;19;19923;-64
2022/01/13 09:49:39;;;;;;;;;;;;;;;6.02;73.54;103494.75;7366369;19;19926;-64
2022/01/13 09:52:04;;;;;;;;;;;;;;;6.09;73.64;103491.63;7362895;19;20011;-65
2022/01/13 09:54:29;;;;;;;;;;;;;;;6.16;73.33;103499.69;7364503;19;19911;-63
2022/01/13 09:56:55;;;;;;;;;;;;;;;6.24;73.69;103511.28;7363698;19;19925;-64
2022/01/13 09:59:20;;;;;;;;;;;;;;;6.31;73.21;103506.31;7367632;19;20240;-64
2022/01/13 10:01:45;;;;;;;;;;;;;;;6.35;73.02;103506.50;7362416;19;20640;-64
2022/01/13 10:04:10;;;;;;;;;;;;;;;6.40;73.32;103504.09;7363222;19;19947;-64
2022/01/13 10:06:44;;;;;;;;;;;;;;;6.43;72.99;103510.28;7356688;19;19907;-63
2022/01/13 10:09:10;;;;;;;;;;;;;;;6.46;73.09;103506.94;7358027;19;19910;-63
2022/01/13 10:11:37;;;;;;;;;;;;;;;6.48;72.96;103508.75;7357295;19;19951;-65
2022/01/13 10:14:16;;;;;;;;;;;;;;;6.50;73.29;103509.72;7362267;19;20409;-63
2022/01/13 10:16:44;;;;;;;;;;;;;;;6.53;72.92;103508.03;7360605;19;19925;-63
2022/01/13 10:19:24;;;;;;;;;;;;;;;6.55;73.19;103509.91;7354444;19;19945;-64
2022/01/13 10:22:01;;;;;;;;;;;;;;;6.59;73.04;103505.69;7361965;19;19931;-66
2022/01/13 10:24:28;;;;;;;;;;;;;;;6.61;73.24;103515.31;7361034;19;19957;-64
2022/01/13 10:27:13;;;;;;;;;;;;;;;6.63;72.72;103513.66;7357833;19;19942;-65
2022/01/13 10:29:41;;;;;;;;;;;;;;;6.68;72.99;103511.22;7366991;19;19925;-66
2022/01/13 10:32:07;;;;;;;;;;;;;;;6.68;72.68;103506.94;7357195;19;19922;-65
2022/01/13 10:34:34;;;;;;;;;;;;;;;6.72;73.02;103507.94;7364938;19;19931;-64
2022/01/13 10:37:05;;;;;;;;;;;;;;;6.75;73.34;103508.06;7364415;19;19930;-64
2022/01/13 10:39:42;;;;;;;;;;;;;;;6.80;73.32;103510.84;7356761;19;19918;-65
2022/01/13 10:42:20;;;;;;;;;;;;;;;6.86;73.34;103508.47;7358137;19;20419;-64
2022/01/13 10:44:52;;;;;;;;;;;;;;;6.92;73.27;103517.38;7353894;19;19929;-65
2022/01/13 10:47:17;;;;;;;;;;;;;;;6.98;73.16;103507.19;7348729;19;19922;-65
2022/01/13 10:49:44;;;;;;;;;;;;;;;7.05;72.79;103517.84;7362054;19;19914;-65
2022/01/13 10:52:26;;;;;;;;;;;;;;;7.11;72.91;103518.06;7365795;19;19959;-65
2022/01/13 10:54:58;;;;;;;;;;;;;;;7.16;73.26;103516.50;7359635;19;21119;-64
2022/01/13 10:57:24;;;;;;;;;;;;;;;7.22;72.98;103519.34;7366611;19;20434;-65
2022/01/13 10:59:50;;;;;;;;;;;;;;;7.27;73.06;103525.56;7352871;19;19931;-63
2022/01/13 11:02:17;;;;;;;;;;;;;;;7.33;73.08;103528.41;7363828;19;19915;-63
2022/01/13 11:04:43;;;;;;;;;;;;;;;7.38;73.11;103524.25;7362165;19;20303;-64
2022/01/13 11:07:12;;;;;;;;;;;;;;;7.42;73.23;103515.72;7362569;19;19922;-63
2022/01/13 11:09:42;;;;;;;;;;;;;;;7.48;72.76;103517.66;7362285;19;20265;-64
2022/01/13 11:12:08;;;;;;;;;;;;;;;7.54;72.77;103516.16;7361676;19;20738;-64
2022/01/13 11:14:40;;;;;;;;;;;;;;;7.60;72.91;103514.59;7352739;19;19921;-63
2022/01/13 11:17:06;;;;;;;;;;;;;;;7.54;72.83;103500.53;7363875;19;19927;-63
2022/01/13 11:19:32;;;;;;;;;;;;;;;7.69;72.86;103512.31;7365469;19;20442;-65
2022/01/13 11:21:57;;;;;;;;;;;;;;;7.74;72.88;103513.34;7360649;19;19938;-65
2022/01/13 11:24:23;;;;;;;;;;;;;;;7.78;73.01;103515.22;7360163;19;19929;-64
2022/01/13 11:26:49;;;;;;;;;;;;;;;7.82;72.73;103511.91;7362104;19;19930;-65
2022/01/13 11:29:16;;;;;;;;;;;;;;;7.87;72.64;103505.16;7354106;19;19939;-62
2022/01/13 11:31:42;;;;;;;;;;;;;;;7.91;72.54;103499.22;7357318;19;20264;-66
2022/01/13 11:34:08;;;;;;;;;;;;;;;7.94;72.47;103501.91;7359272;19;19923;-64
2022/01/13 11:36:33;;;;;;;;;;;;;;;7.99;72.89;103505.53;7351164;19;19923;-63
2022/01/13 11:39:00;;;;;;;;;;;;;;;8.02;72.40;103508.25;7348352;19;19926;-64
2022/01/13 11:41:25;;;;;;;;;;;;;;;8.05;72.29;103499.66;7353335;19;20052;-64
2022/01/13 11:43:51;;;;;;;;;;;;;;;8.07;72.42;103496.28;7356429;19;19987;-65
2022/01/13 11:46:21;;;;;;;;;;;;;;;8.11;72.52;103498.97;7357752;19;19923;-63
2022/01/13 11:48:58;;;;;;;;;;;;;;;8.12;72.36;103491.22;7354051;19;20498;-65
2022/01/13 11:51:24;;;;;;;;;;;;;;;8.15;72.16;103493.03;7363014;19;20663;-64
2022/01/13 11:53:54;;;;;;;;;;;;;;;8.16;72.12;103486.97;7358643;19;19929;-64
2022/01/13 11:56:20;;;;;;;;;;;;;;;8.18;72.09;103478.41;7362376;19;20291;-64
2022/01/13 11:58:46;;;;;;;;;;;;;;;8.22;72.23;103490.69;7360745;19;19982;-63
2022/01/13 12:01:20;;;;;;;;;;;;;;;8.23;72.48;103476.81;7353170;19;19918;-65
2022/01/13 12:03:59;;;;;;;;;;;;;;;8.26;72.03;103468.22;7362350;19;19911;-64
2022/01/13 12:06:42;;;;;;;;;;;;;;;8.28;72.15;103466.56;7353050;19;19940;-64
2022/01/13 12:09:08;;;;;;;;;;;;;;;8.31;72.20;103461.41;7365742;19;20398;-65
2022/01/13 12:11:40;;;;;;;;;;;;;;;8.28;72.12;103453.53;7362046;19;21455;-64
2022/01/13 12:14:27;;;;;;;;;;;;;;;8.36;72.13;103470.28;7360398;19;19913;-64
2022/01/13 12:17:13;;;;;;;;;;;;;;;8.41;72.10;103465.22;7359805;19;19933;-64
2022/01/13 12:19:47;;;;;;;;;;;;;;;8.43;72.32;103461.84;7364457;19;20397;-65
2022/01/13 12:22:20;;;;;;;;;;;;;;;8.48;72.18;103468.09;7359087;19;20362;-65
2022/01/13 12:24:53;;;;;;;;;;;;;;;8.51;72.04;103470.75;7360057;19;19922;-65
2022/01/13 12:27:20;;;;;;;;;;;;;;;8.54;71.84;103470.88;7353557;19;19919;-65
2022/01/13 12:29:47;;;;;;;;;;;;;;;8.51;72.10;103468.16;7360711;19;19941;-64
2022/01/13 12:32:14;;;;;;;;;;;;;;;8.58;71.84;103472.72;7361161;19;19953;-64
2022/01/13 12:34:47;;;;;;;;;;;;;;;8.61;72.00;103477.13;7356085;19;19926;-65
2022/01/13 12:37:12;;;;;;;;;;;;;;;8.63;71.80;103482.41;7360961;19;19938;-64
2022/01/13 12:39:41;;;;;;;;;;;;;;;8.64;71.63;103484.16;7357053;19;19910;-64
2022/01/13 12:42:12;;;;;;;;;;;;;;;8.66;71.41;103479.88;7364658;19;19919;-65
2022/01/13 12:47:21;;;;;;;;;;;;;;;8.68;71.48;103473.00;7359196;19;20325;-65
2022/01/13 12:49:47;;;;;;;;;;;;;;;8.68;71.81;103473.00;7352846;19;19915;-64
2022/01/13 12:52:18;;;;;;;;;;;;;;;8.68;71.71;103476.50;7354336;19;19922;-65
2022/01/13 12:54:46;;;;;;;;;;;;;;;8.70;71.33;103477.41;7353448;19;19922;-65
2022/01/13 12:57:12;;;;;;;;;;;;;;;8.70;71.56;103476.53;7357277;19;19946;-64
2022/01/13 12:59:37;;;;;;;;;;;;;;;8.71;71.48;103478.28;7359451;19;19930;-65
2022/01/13 13:02:03;;;;;;;;;;;;;;;8.71;71.64;103473.97;7362739;19;19979;-64
2022/01/13 13:04:34;;;;;;;;;;;;;;;8.72;71.65;103474.88;7359575;19;19926;-65
2022/01/13 13:06:59;;;;;;;;;;;;;;;8.72;71.40;103480.09;7356255;19;19923;-63
2022/01/13 13:09:27;;;;;;;;;;;;;;;8.72;71.58;103472.28;7361232;19;19925;-65